Terminal Aerodrome Forecast
Issued by NWS

Home | Current Version | Previous Version | Text Only | Print | Product List | Glossary On
Versions: 1 2 3 4 5 6 7 8 9 10 11 12 13 14 15 16 17 18 19 20
000
FTUS43 KGLD 220541
TAFMCK
TAF
KMCK 220541Z 2206/2306 01003KT 4SM BR BKN015
      TEMPO 2210/2214 3SM BR BKN005
     FM221400 03006KT P6SM FEW010 SCT080
     FM222000 11006KT P6SM FEW030 SCT110=

USA.gov is the U.S. government's official web portal to all federal, state and local government web resources and services.